Time;durP1;ratioP1;P1;durP2;ratioP2;P2;SDS_P1;SDS_P2;PMS_P1;PMS_P2;Temp;Humidity;BMP_temperature;BMP_pressure;BME280_temperature;BME280_humidity;BME280_pressure;Samples;Min_cycle;Max_cycle;Signal;HPM_P1;HPM_P2
2022/03/10 00:00:47;;;;;;;13.20;9.00;;;;;;;-3.99;75.43;100440.29;109444;1273;22469;-62
2022/03/10 00:03:17;;;;;;;13.30;8.00;;;;;;;-4.02;75.25;100441.09;109526;1273;22296;-62
2022/03/10 00:05:46;;;;;;;14.20;7.80;;;;;;;-4.04;74.49;100441.30;109590;1273;22402;-62
2022/03/10 00:08:14;;;;;;;14.50;8.60;;;;;;;-4.06;74.41;100443.27;109622;1272;23264;-62
2022/03/10 00:10:42;;;;;;;15.10;9.50;;;;;;;-4.09;74.39;100441.42;109606;1273;22454;-62
2022/03/10 00:13:10;;;;;;;19.00;8.90;;;;;;;-4.09;74.52;100450.27;109534;1273;22518;-62
2022/03/10 00:15:42;;;;;;;17.30;9.40;;;;;;;-4.10;74.62;100446.10;109615;1271;22405;-62
2022/03/10 00:18:10;;;;;;;14.70;8.90;;;;;;;-4.11;74.50;100448.88;109611;1273;23997;-62
2022/03/10 00:20:38;;;;;;;14.10;9.00;;;;;;;-4.12;74.71;100453.94;109608;1272;22430;-62
2022/03/10 00:23:07;;;;;;;15.20;9.10;;;;;;;-4.13;74.94;100455.48;109633;1273;23188;-62
2022/03/10 00:25:35;;;;;;;16.50;9.30;;;;;;;-4.13;75.08;100460.80;109520;1273;22446;-62
2022/03/10 00:28:03;;;;;;;13.40;8.40;;;;;;;-4.14;75.17;100455.26;109591;1272;23192;-62
2022/03/10 00:30:31;;;;;;;12.20;7.40;;;;;;;-4.16;74.65;100458.55;109589;1273;22405;-62
2022/03/10 00:33:00;;;;;;;14.30;8.10;;;;;;;-4.20;73.05;100460.01;109653;1271;22540;-62
2022/03/10 00:35:29;;;;;;;15.00;8.10;;;;;;;-4.25;72.39;100461.73;109556;1273;22417;-62
2022/03/10 00:37:59;;;;;;;14.10;7.30;;;;;;;-4.31;71.96;100458.17;109637;1273;22343;-62
2022/03/10 00:40:28;;;;;;;15.60;8.70;;;;;;;-4.35;71.74;100461.77;109507;1273;22279;-62
2022/03/10 00:42:56;;;;;;;12.40;7.60;;;;;;;-4.39;71.38;100458.21;109615;1272;22551;-62
2022/03/10 00:45:27;;;;;;;13.60;7.70;;;;;;;-4.42;71.29;100459.26;109467;1273;23200;-62
2022/03/10 00:47:56;;;;;;;14.20;8.50;;;;;;;-4.45;71.22;100461.80;109611;1273;22403;-62
2022/03/10 00:50:24;;;;;;;12.50;7.90;;;;;;;-4.48;70.87;100458.20;109605;1272;22475;-62
2022/03/10 00:52:52;;;;;;;13.70;8.30;;;;;;;-4.51;70.91;100461.09;109605;1273;22533;-62
2022/03/10 00:55:20;;;;;;;15.10;8.50;;;;;;;-4.53;70.98;100462.73;109209;1272;22587;-61
2022/03/10 00:57:49;;;;;;;14.40;8.20;;;;;;;-4.55;71.34;100470.14;109577;1273;22451;-62
2022/03/10 01:00:17;;;;;;;16.10;8.50;;;;;;;-4.56;71.19;100467.09;109549;1272;25090;-62
2022/03/10 01:02:45;;;;;;;12.10;7.30;;;;;;;-4.60;71.11;100472.86;109612;1273;22425;-62
2022/03/10 01:05:14;;;;;;;16.10;8.50;;;;;;;-4.67;70.18;100474.55;109614;1272;22454;-62
2022/03/10 01:07:42;;;;;;;12.80;7.20;;;;;;;-4.73;69.80;100479.92;109612;1273;22490;-62
2022/03/10 01:10:13;;;;;;;15.10;8.00;;;;;;;-4.80;68.91;100484.31;109584;1273;22986;-62
2022/03/10 01:13:01;;;;;;;13.90;7.00;;;;;;;-4.89;68.74;100489.65;109593;1273;22507;-62
2022/03/10 01:15:30;;;;;;;11.80;6.90;;;;;;;-4.96;68.66;100490.16;109563;1273;22543;-62
2022/03/10 01:17:58;;;;;;;13.20;7.00;;;;;;;-5.01;68.69;100489.61;109625;1272;22508;-62
2022/03/10 01:20:26;;;;;;;12.30;7.80;;;;;;;-5.04;68.46;100495.91;109601;1273;22451;-62
2022/03/10 01:22:55;;;;;;;13.50;8.70;;;;;;;-5.08;68.59;100497.38;109619;1272;22406;-62
2022/03/10 01:25:23;;;;;;;15.80;8.60;;;;;;;-5.11;68.55;100501.19;109618;1272;22411;-61
2022/03/10 01:27:52;;;;;;;13.10;7.30;;;;;;;-5.14;68.78;100507.96;109633;1271;22402;-62
2022/03/10 01:30:21;;;;;;;14.40;7.50;;;;;;;-5.14;69.18;100507.98;109578;1273;23153;-61
2022/03/10 01:32:49;;;;;;;14.20;8.50;;;;;;;-5.15;69.07;100513.20;109555;1273;22436;-62
2022/03/10 01:35:17;;;;;;;15.30;8.10;;;;;;;-5.14;69.41;100517.56;109525;1273;22541;-62
2022/03/10 01:37:45;;;;;;;13.70;8.10;;;;;;;-5.14;69.39;100521.11;109641;1271;22427;-62
2022/03/10 01:40:16;;;;;;;13.30;7.30;;;;;;;-5.14;69.60;100523.09;109577;1273;22525;-62
2022/03/10 01:42:45;;;;;;;14.40;8.00;;;;;;;-5.16;69.80;100520.95;109467;1273;22466;-62
2022/03/10 01:45:15;;;;;;;13.20;7.30;;;;;;;-5.17;69.88;100531.97;109542;1273;23215;-61
2022/03/10 01:47:44;;;;;;;12.60;7.10;;;;;;;-5.19;69.60;100537.70;106268;1273;23128;-63
2022/03/10 01:50:13;;;;;;;14.00;8.00;;;;;;;-5.26;68.43;100539.48;109522;1273;23298;-61
2022/03/10 01:52:41;;;;;;;13.00;7.10;;;;;;;-5.31;67.79;100541.77;109603;1272;22535;-61
2022/03/10 01:55:10;;;;;;;10.10;6.30;;;;;;;-5.37;66.91;100552.83;109444;1273;22505;-61
2022/03/10 01:57:41;;;;;;;12.20;6.20;;;;;;;-5.43;66.01;100553.30;109563;1273;22411;-61
2022/03/10 02:00:10;;;;;;;14.40;7.10;;;;;;;-5.47;65.57;100559.31;109607;1273;23043;-61
2022/03/10 02:02:40;;;;;;;10.30;6.20;;;;;;;-5.50;65.30;100560.55;109575;1273;22229;-61
2022/03/10 02:05:09;;;;;;;12.10;7.00;;;;;;;-5.53;65.25;100561.49;109634;1272;22424;-61
2022/03/10 02:10:39;;;;;;;10.90;6.10;;;;;;;-5.64;64.82;100562.80;109375;1273;23340;-62
2022/03/10 02:13:10;;;;;;;11.40;6.60;;;;;;;-5.66;64.81;100571.63;109516;1273;22216;-61
2022/03/10 02:18:26;;;;;;;10.20;6.50;;;;;;;-5.77;64.06;100575.90;109505;1273;23197;-61
2022/03/10 02:20:54;;;;;;;11.00;5.80;;;;;;;-5.84;63.82;100582.10;109590;1271;22423;-61
2022/03/10 02:23:23;;;;;;;14.10;6.20;;;;;;;-5.91;63.53;100584.30;109515;1273;22553;-61
2022/03/10 02:25:51;;;;;;;12.10;6.90;;;;;;;-5.96;63.54;100590.83;109582;1273;22205;-62
2022/03/10 02:28:19;;;;;;;13.90;6.60;;;;;;;-6.02;63.50;100596.77;109601;1272;23487;-61
2022/03/10 02:30:47;;;;;;;8.40;5.20;;;;;;;-6.09;63.76;100596.42;109535;1273;22456;-61
2022/03/10 02:33:19;;;;;;;10.10;5.20;;;;;;;-6.14;64.07;100602.81;109531;1272;22382;-61
2022/03/10 02:35:47;;;;;;;12.20;3.90;;;;;;;-6.20;63.99;100605.11;108475;1273;24230;-61
2022/03/10 02:38:17;;;;;;;8.80;4.30;;;;;;;-6.23;64.07;100611.41;105348;1273;22768;-60
2022/03/10 02:40:47;;;;;;;7.10;3.50;;;;;;;-6.27;64.10;100616.17;109609;1273;23261;-61
2022/03/10 02:43:16;;;;;;;7.20;3.20;;;;;;;-6.33;64.00;100624.23;109526;1273;22493;-61
2022/03/10 02:45:45;;;;;;;5.40;3.40;;;;;;;-6.40;64.02;100623.94;109614;1273;22424;-61
2022/03/10 02:48:14;;;;;;;6.40;3.50;;;;;;;-6.42;63.77;100629.02;109527;1272;23030;-61
2022/03/10 02:50:43;;;;;;;4.80;3.60;;;;;;;-6.45;63.83;100633.67;109591;1272;22403;-61
2022/03/10 02:53:11;;;;;;;7.10;3.20;;;;;;;-6.49;64.12;100630.75;109584;1273;22472;-61
2022/03/10 02:55:39;;;;;;;6.20;3.50;;;;;;;-6.50;64.23;100635.50;109609;1273;23280;-61
2022/03/10 02:58:07;;;;;;;5.10;3.50;;;;;;;-6.53;64.04;100636.44;109563;1273;22537;-61
2022/03/10 03:00:36;;;;;;;6.70;4.10;;;;;;;-6.56;64.14;100637.90;109550;1273;22298;-61
2022/03/10 03:03:04;;;;;;;5.90;3.60;;;;;;;-6.59;64.30;100640.77;109565;1272;22434;-61
2022/03/10 03:05:33;;;;;;;7.10;3.90;;;;;;;-6.63;64.50;100638.45;109605;1272;23311;-61
2022/03/10 03:08:01;;;;;;;5.70;3.60;;;;;;;-6.65;64.63;100649.98;109594;1273;22502;-61
2022/03/10 03:10:29;;;;;;;8.00;3.70;;;;;;;-6.70;64.90;100650.68;109575;1273;22970;-61
2022/03/10 03:12:57;;;;;;;8.60;4.20;;;;;;;-6.68;64.89;100655.88;109597;1273;23550;-61
2022/03/10 03:15:25;;;;;;;6.50;3.80;;;;;;;-6.71;64.96;100661.75;109588;1273;22456;-61
2022/03/10 03:17:54;;;;;;;9.50;3.90;;;;;;;-6.75;65.06;100669.95;109523;1273;22389;-61
2022/03/10 03:20:22;;;;;;;7.20;4.10;;;;;;;-6.80;65.21;100673.18;109556;1273;22451;-61
2022/03/10 03:22:52;;;;;;;7.80;3.80;;;;;;;-6.83;65.32;100678.32;109565;1272;22473;-61
2022/03/10 03:25:20;;;;;;;8.10;4.70;;;;;;;-6.85;65.51;100683.99;109615;1273;22561;-61
2022/03/10 03:27:49;;;;;;;8.30;4.40;;;;;;;-6.88;65.63;100682.77;109586;1272;23297;-61
2022/03/10 03:30:17;;;;;;;8.40;4.50;;;;;;;-6.90;65.62;100688.27;109578;1274;23064;-61
2022/03/10 03:32:46;;;;;;;10.20;4.70;;;;;;;-6.96;65.76;100691.05;109502;1272;22416;-61
2022/03/10 03:35:14;;;;;;;7.70;4.60;;;;;;;-7.00;65.94;100694.00;109474;1272;22589;-61
2022/03/10 03:37:42;;;;;;;9.80;4.90;;;;;;;-7.02;65.94;100706.52;109602;1272;23397;-61
2022/03/10 03:40:11;;;;;;;10.80;5.50;;;;;;;-7.06;66.23;100706.16;109592;1273;22542;-61
2022/03/10 03:42:39;;;;;;;6.50;4.30;;;;;;;-7.09;66.17;100710.57;109537;1273;22419;-62
2022/03/10 03:45:10;;;;;;;7.90;4.50;;;;;;;-7.10;66.25;100711.41;109487;1274;22448;-62
2022/03/10 03:47:38;;;;;;;7.10;4.70;;;;;;;-7.10;66.39;100711.04;109482;1274;23072;-62
2022/03/10 03:50:06;;;;;;;11.20;5.30;;;;;;;-7.10;66.24;100714.02;109502;1273;22450;-62
2022/03/10 03:52:34;;;;;;;9.30;5.30;;;;;;;-7.11;66.29;100723.43;109584;1273;23170;-62
2022/03/10 03:55:08;;;;;;;9.50;4.30;;;;;;;-7.12;66.38;100722.14;109554;1272;23203;-62
2022/03/10 03:57:36;;;;;;;9.80;5.40;;;;;;;-7.15;66.42;100722.14;109579;1273;22433;-60
2022/03/10 04:00:06;;;;;;;8.70;5.00;;;;;;;-7.19;66.52;100720.33;109585;1272;22417;-60
2022/03/10 04:02:37;;;;;;;6.60;4.40;;;;;;;-7.21;66.50;100720.48;109526;1272;23362;-61
2022/03/10 04:05:06;;;;;;;6.50;4.10;;;;;;;-7.22;66.67;100722.52;109580;1273;22255;-60
2022/03/10 04:07:36;;;;;;;8.70;5.00;;;;;;;-7.22;66.91;100725.46;109618;1274;22379;-60
2022/03/10 04:10:05;;;;;;;7.90;5.20;;;;;;;-7.22;67.05;100727.63;109546;1273;22410;-60
2022/03/10 04:12:35;;;;;;;10.60;5.50;;;;;;;-7.25;67.34;100726.83;109583;1273;22383;-61
2022/03/10 04:15:06;;;;;;;10.40;5.60;;;;;;;-7.28;67.54;100729.13;109570;1272;22400;-61
2022/03/10 04:17:38;;;;;;;12.70;5.50;;;;;;;-7.29;67.72;100732.92;109542;1272;22336;-61
2022/03/10 04:20:08;;;;;;;11.60;5.00;;;;;;;-7.31;68.03;100734.61;109548;1273;22476;-61
2022/03/10 04:22:44;;;;;;;9.00;4.70;;;;;;;-7.33;68.08;100736.25;109557;1274;22601;-60
2022/03/10 04:25:12;;;;;;;9.70;5.20;;;;;;;-7.36;68.10;100740.20;109576;1272;23357;-61
2022/03/10 04:27:41;;;;;;;10.60;5.30;;;;;;;-7.38;68.36;100744.35;109556;1273;23085;-60
2022/03/10 04:30:10;;;;;;;9.50;5.20;;;;;;;-7.37;68.45;100745.20;109602;1272;22471;-60
2022/03/10 04:32:42;;;;;;;7.70;4.60;;;;;;;-7.36;68.32;100751.79;109493;1273;23288;-60
2022/03/10 04:35:12;;;;;;;10.20;5.10;;;;;;;-7.36;67.79;100753.60;109599;1272;23066;-60
2022/03/10 04:37:40;;;;;;;9.00;5.00;;;;;;;-7.37;67.79;100753.51;109533;1273;22533;-60
2022/03/10 04:40:09;;;;;;;9.30;5.40;;;;;;;-7.36;67.83;100761.73;109592;1273;22236;-60
2022/03/10 04:42:38;;;;;;;10.30;5.60;;;;;;;-7.39;67.72;100761.79;109567;1273;22565;-60
2022/03/10 04:45:07;;;;;;;12.20;5.30;;;;;;;-7.42;67.85;100767.64;109581;1272;22413;-60
2022/03/10 04:47:36;;;;;;;10.20;5.20;;;;;;;-7.44;67.91;100765.27;109514;1273;22902;-61
2022/03/10 04:50:05;;;;;;;9.30;4.90;;;;;;;-7.41;68.10;100775.70;109592;1273;23060;-62
2022/03/10 04:52:35;;;;;;;9.10;5.30;;;;;;;-7.41;67.79;100777.76;109590;1273;22421;-62
2022/03/10 04:55:04;;;;;;;8.60;5.50;;;;;;;-7.40;67.50;100779.83;109552;1273;22545;-62
2022/03/10 04:57:34;;;;;;;9.20;5.60;;;;;;;-7.41;67.60;100781.43;109476;1273;22425;-62
2022/03/10 05:00:08;;;;;;;7.70;4.80;;;;;;;-7.41;67.55;100783.79;109532;1273;22366;-62
2022/03/10 05:02:38;;;;;;;8.30;4.40;;;;;;;-7.41;67.58;100786.58;109522;1273;23145;-62
2022/03/10 05:05:07;;;;;;;9.00;4.90;;;;;;;-7.41;67.36;100789.11;109573;1273;22410;-62
2022/03/10 05:07:36;;;;;;;7.40;5.10;;;;;;;-7.41;67.31;100794.21;109582;1273;23167;-62
2022/03/10 05:10:06;;;;;;;9.00;4.70;;;;;;;-7.41;67.35;100794.20;109539;1273;22462;-62
2022/03/10 05:12:34;;;;;;;9.20;4.90;;;;;;;-7.39;67.38;100796.84;109421;1273;22343;-62
2022/03/10 05:15:02;;;;;;;9.90;4.90;;;;;;;-7.34;67.34;100802.11;109529;1273;22524;-62
2022/03/10 05:17:31;;;;;;;11.00;5.20;;;;;;;-7.32;67.18;100801.06;109457;1274;22562;-62
2022/03/10 05:19:59;;;;;;;9.40;4.90;;;;;;;-7.30;67.29;100805.72;109537;1272;22399;-62
2022/03/10 05:22:43;;;;;;;8.80;5.40;;;;;;;-7.27;67.20;100806.02;109586;1272;22453;-62
2022/03/10 05:25:13;;;;;;;10.70;5.20;;;;;;;-7.23;67.33;100810.31;109535;1273;22418;-62
2022/03/10 05:27:42;;;;;;;7.30;4.30;;;;;;;-7.20;67.11;100804.77;109580;1272;22474;-62
2022/03/10 05:30:10;;;;;;;7.80;4.60;;;;;;;-7.16;67.14;100816.33;109539;1272;22490;-62
2022/03/10 05:32:39;;;;;;;8.70;4.60;;;;;;;-7.14;66.81;100807.36;109529;1273;22463;-62
2022/03/10 05:35:08;;;;;;;15.10;6.00;;;;;;;-7.12;66.91;100816.73;109484;1273;22692;-62
2022/03/10 05:37:37;;;;;;;7.70;4.50;;;;;;;-7.09;66.69;100810.70;109581;1272;22433;-62
2022/03/10 05:40:07;;;;;;;9.80;4.90;;;;;;;-7.05;66.55;100815.48;109588;1272;23213;-62
2022/03/10 05:42:38;;;;;;;7.10;4.00;;;;;;;-7.01;66.57;100821.74;109521;1273;23406;-62
2022/03/10 05:45:07;;;;;;;9.90;4.70;;;;;;;-6.97;66.54;100823.04;109574;1272;23312;-62
2022/03/10 05:47:41;;;;;;;8.50;4.20;;;;;;;-6.95;66.40;100827.15;109401;1273;22484;-62
2022/03/10 05:50:10;;;;;;;11.20;5.80;;;;;;;-6.95;66.34;100822.53;109499;1273;22597;-62
2022/03/10 05:52:38;;;;;;;11.00;5.50;;;;;;;-6.90;66.26;100825.66;109455;1273;22692;-62
2022/03/10 05:55:06;;;;;;;9.30;5.20;;;;;;;-6.84;66.03;100825.59;109515;1273;22404;-62
2022/03/10 05:57:34;;;;;;;9.50;4.60;;;;;;;-6.85;65.97;100819.09;109275;1273;282720;-62
2022/03/10 06:00:59;;;;;;;8.80;5.20;;;;;;;-6.75;66.09;100823.63;102081;1309;545370;-61
2022/03/10 06:03:35;;;;;;;9.00;4.80;;;;;;;-6.72;65.57;100834.02;104469;1284;23692;-60
2022/03/10 06:06:03;;;;;;;7.00;4.70;;;;;;;-6.70;65.16;100833.04;104558;1284;22585;-61
2022/03/10 06:08:33;;;;;;;10.50;6.00;;;;;;;-6.69;64.94;100838.57;104182;1286;24389;-60
2022/03/10 06:11:04;;;;;;;8.80;5.10;;;;;;;-6.70;64.61;100840.22;108677;1283;24838;-60
2022/03/10 06:13:32;;;;;;;9.80;5.60;;;;;;;-6.69;64.52;100839.69;108404;1283;390355;-61
2022/03/10 06:16:00;;;;;;;11.20;6.40;;;;;;;-6.67;64.88;100839.85;107429;1281;22552;-61
2022/03/10 06:18:29;;;;;;;11.50;5.20;;;;;;;-6.62;64.67;100844.73;108913;1281;23494;-61
2022/03/10 06:20:58;;;;;;;10.50;5.80;;;;;;;-6.59;64.70;100847.71;109007;1280;22522;-61
2022/03/10 06:23:26;;;;;;;10.20;5.10;;;;;;;-6.56;64.90;100849.27;108891;1281;22486;-61
2022/03/10 06:25:54;;;;;;;9.90;4.90;;;;;;;-6.53;64.74;100849.39;108994;1281;22480;-61
2022/03/10 06:28:22;;;;;;;8.60;5.50;;;;;;;-6.53;64.49;100846.88;108997;1281;22489;-61
2022/03/10 06:30:50;;;;;;;7.00;4.40;;;;;;;-6.48;64.43;100844.42;108909;1281;22434;-61
2022/03/10 06:33:19;;;;;;;10.40;5.30;;;;;;;-6.44;64.17;100843.94;108919;1281;22516;-61
2022/03/10 06:35:47;;;;;;;10.70;5.70;;;;;;;-6.34;63.65;100853.06;108958;1281;22356;-61
2022/03/10 06:38:16;;;;;;;15.30;6.00;;;;;;;-6.32;63.40;100850.05;108974;1281;22513;-61
2022/03/10 06:40:44;;;;;;;9.50;5.30;;;;;;;-6.29;63.05;100849.14;108930;1281;22440;-61
2022/03/10 06:43:13;;;;;;;9.10;4.70;;;;;;;-6.26;63.41;100849.92;109270;1277;22240;-61
2022/03/10 06:45:42;;;;;;;8.90;5.00;;;;;;;-6.19;63.60;100855.05;109087;1280;22418;-61
2022/03/10 06:48:10;;;;;;;10.10;5.10;;;;;;;-6.12;63.27;100850.63;109245;1277;22446;-61
2022/03/10 06:50:38;;;;;;;25.90;7.70;;;;;;;-6.05;63.12;100855.74;109244;1277;22415;-61
2022/03/10 06:53:07;;;;;;;11.30;5.10;;;;;;;-5.99;63.09;100857.40;109273;1277;22479;-62
2022/03/10 06:55:35;;;;;;;13.20;6.00;;;;;;;-5.93;62.73;100858.19;109166;1278;23171;-61
2022/03/10 06:58:03;;;;;;;23.50;7.90;;;;;;;-5.89;62.24;100870.90;109167;1280;22487;-61
2022/03/10 07:00:32;;;;;;;31.90;11.20;;;;;;;-5.89;62.10;100867.00;108864;1280;22498;-62
2022/03/10 07:03:00;;;;;;;14.20;6.00;;;;;;;-5.88;61.42;100871.21;109008;1280;22415;-62
2022/03/10 07:05:29;;;;;;;21.20;7.70;;;;;;;-5.90;61.39;100868.33;108959;1280;22581;-61
2022/03/10 07:07:57;;;;;;;19.50;7.60;;;;;;;-5.89;61.22;100865.63;108987;1280;22384;-61
2022/03/10 07:10:26;;;;;;;39.70;13.70;;;;;;;-5.87;61.20;100863.10;109054;1280;22449;-61
2022/03/10 07:12:55;;;;;;;39.20;14.00;;;;;;;-5.82;60.33;100866.09;109385;1276;22465;-61
2022/03/10 07:15:23;;;;;;;24.20;9.90;;;;;;;-5.83;59.63;100862.26;109462;1276;22391;-62
2022/03/10 07:17:53;;;;;;;10.70;5.40;;;;;;;-5.81;59.55;100865.16;109406;1275;24628;-61
2022/03/10 07:20:21;;;;;;;7.70;4.00;;;;;;;-5.78;58.66;100866.48;109304;1276;22634;-61
2022/03/10 07:22:49;;;;;;;8.10;4.30;;;;;;;-5.74;58.04;100864.89;109472;1274;23518;-62
2022/03/10 07:25:18;;;;;;;9.10;4.80;;;;;;;-5.70;58.09;100868.00;109426;1276;22410;-62
2022/03/10 07:27:46;;;;;;;15.10;4.80;;;;;;;-5.67;57.69;100874.86;109457;1276;23197;-60
2022/03/10 07:30:14;;;;;;;10.30;5.30;;;;;;;-5.65;57.43;100866.36;109393;1277;23171;-61
2022/03/10 07:32:42;;;;;;;8.00;4.30;;;;;;;-5.61;57.14;100871.33;109371;1277;23210;-61
2022/03/10 07:35:11;;;;;;;8.00;4.50;;;;;;;-5.57;56.93;100868.57;109404;1274;23061;-60
2022/03/10 07:37:46;;;;;;;16.90;6.90;;;;;;;-5.56;56.58;100871.81;109433;1275;22247;-62
2022/03/10 07:40:15;;;;;;;13.90;6.60;;;;;;;-5.51;56.64;100872.33;109447;1276;22466;-61
2022/03/10 07:42:43;;;;;;;14.00;5.70;;;;;;;-5.48;56.36;100874.89;109430;1276;22443;-61
2022/03/10 07:45:11;;;;;;;14.20;6.60;;;;;;;-5.45;55.33;100874.11;109439;1274;22391;-62
2022/03/10 07:47:40;;;;;;;10.50;5.20;;;;;;;-5.44;54.60;100879.36;109401;1276;22479;-61
2022/03/10 07:50:09;;;;;;;8.20;4.30;;;;;;;-5.44;54.14;100885.16;109423;1274;22492;-61
2022/03/10 07:52:37;;;;;;;6.50;3.50;;;;;;;-5.44;53.54;100876.71;109354;1276;23103;-61
2022/03/10 07:55:08;;;;;;;7.40;3.80;;;;;;;-5.47;53.36;100877.80;109395;1276;22425;-61
2022/03/10 07:57:36;;;;;;;8.00;4.30;;;;;;;-5.48;52.95;100872.25;109268;1277;22237;-61
2022/03/10 08:00:06;;;;;;;13.90;7.20;;;;;;;-5.46;52.24;100870.80;109383;1277;22441;-61
2022/03/10 08:02:37;;;;;;;5.10;3.30;;;;;;;-5.45;52.84;100872.30;109412;1276;22423;-61
2022/03/10 08:05:11;;;;;;;5.60;3.40;;;;;;;-5.43;53.04;100867.89;109466;1274;22416;-58
2022/03/10 08:07:39;;;;;;;6.40;3.40;;;;;;;-5.39;53.69;100861.98;105261;1274;22714;-62
2022/03/10 08:10:09;;;;;;;6.40;3.50;;;;;;;-5.27;52.71;100871.98;109438;1274;22434;-60
2022/03/10 08:12:37;;;;;;;6.90;3.50;;;;;;;-5.24;51.95;100868.36;109490;1274;22274;-62
2022/03/10 08:15:06;;;;;;;8.30;3.70;;;;;;;-5.27;51.62;100866.48;109576;1274;23266;-61
2022/03/10 08:17:34;;;;;;;7.60;3.70;;;;;;;-5.32;51.97;100856.78;109507;1274;22247;-62
2022/03/10 08:20:02;;;;;;;7.90;4.30;;;;;;;-5.24;52.55;100867.33;109476;1274;22688;-62
2022/03/10 08:22:31;;;;;;;6.80;3.50;;;;;;;-5.13;52.01;100859.84;109550;1274;23057;-61
2022/03/10 08:24:59;;;;;;;9.40;4.20;;;;;;;-5.02;50.88;100865.48;109533;1274;22408;-62
2022/03/10 08:27:27;;;;;;;9.80;3.90;;;;;;;-5.03;50.20;100868.58;109521;1274;22453;-61
2022/03/10 08:29:56;;;;;;;5.10;3.20;;;;;;;-4.97;49.56;100875.35;109470;1274;23305;-61
2022/03/10 08:32:25;;;;;;;8.00;3.80;;;;;;;-4.99;49.39;100863.11;109419;1274;23209;-61
2022/03/10 08:34:53;;;;;;;14.40;4.50;;;;;;;-5.02;49.14;100858.76;109446;1274;22353;-62
2022/03/10 08:37:22;;;;;;;6.50;3.30;;;;;;;-5.03;49.23;100862.02;109559;1274;23316;-61
2022/03/10 08:39:51;;;;;;;9.00;3.50;;;;;;;-5.02;49.69;100859.06;109467;1274;23280;-61
2022/03/10 08:42:19;;;;;;;54.90;19.60;;;;;;;-4.98;49.63;100858.59;109526;1274;22464;-62
2022/03/10 08:44:47;;;;;;;39.70;12.30;;;;;;;-4.92;48.99;100865.89;109532;1274;22445;-62
2022/03/10 08:47:19;;;;;;;91.30;25.50;;;;;;;-4.89;48.77;100860.14;109455;1274;22537;-62
2022/03/10 08:49:47;;;;;;;72.70;22.90;;;;;;;-4.86;49.19;100862.79;109507;1274;22409;-62
2022/03/10 08:52:15;;;;;;;98.00;30.60;;;;;;;-4.83;48.07;100855.08;109468;1274;23351;-62
2022/03/10 08:54:44;;;;;;;38.70;12.80;;;;;;;-4.83;47.55;100855.20;109500;1274;23479;-62
2022/03/10 08:57:12;;;;;;;10.00;4.50;;;;;;;-4.83;48.04;100861.96;109540;1272;22549;-62
2022/03/10 08:59:40;;;;;;;34.50;12.00;;;;;;;-4.79;48.92;100859.02;109579;1271;22465;-62
2022/03/10 09:02:08;;;;;;;5.00;3.30;;;;;;;-4.72;49.62;100871.46;109534;1274;22518;-63
2022/03/10 09:04:37;;;;;;;11.00;5.10;;;;;;;-4.71;48.14;100866.63;109578;1274;22435;-61
2022/03/10 09:07:05;;;;;;;6.50;3.80;;;;;;;-4.73;47.79;100859.89;109551;1272;22513;-64
2022/03/10 09:09:34;;;;;;;7.40;3.80;;;;;;;-4.76;46.80;100854.08;109588;1274;22399;-64
2022/03/10 09:12:03;;;;;;;7.40;4.20;;;;;;;-4.73;46.19;100863.44;109603;1272;23537;-63
2022/03/10 09:14:31;;;;;;;9.70;3.80;;;;;;;-4.73;46.11;100851.55;109544;1274;22568;-63
2022/03/10 09:16:59;;;;;;;13.80;6.60;;;;;;;-4.68;46.02;100861.64;109564;1273;22454;-64
2022/03/10 09:19:28;;;;;;;8.10;3.50;;;;;;;-4.67;46.69;100852.84;109535;1272;22429;-64
2022/03/10 09:21:58;;;;;;;7.30;3.30;;;;;;;-4.64;46.39;100846.35;109566;1272;22416;-64
2022/03/10 09:24:31;;;;;;;35.30;14.60;;;;;;;-4.55;46.19;100849.70;109613;1274;22433;-64
2022/03/10 09:26:59;;;;;;;19.70;7.50;;;;;;;-4.52;44.30;100849.80;109629;1273;23365;-64
2022/03/10 09:29:27;;;;;;;28.80;10.70;;;;;;;-4.52;45.05;100845.73;109563;1274;22448;-63
2022/03/10 09:31:55;;;;;;;9.20;4.30;;;;;;;-4.46;44.83;100845.06;109586;1273;22529;-63
2022/03/10 09:34:24;;;;;;;36.90;14.40;;;;;;;-4.37;44.84;100848.73;109565;1274;22458;-63
2022/03/10 09:36:52;;;;;;;28.40;11.60;;;;;;;-4.31;43.14;100846.56;109549;1273;22998;-63
2022/03/10 09:39:20;;;;;;;6.40;3.60;;;;;;;-4.29;42.49;100848.73;109550;1274;22511;-64
2022/03/10 09:41:49;;;;;;;18.70;8.70;;;;;;;-4.27;42.52;100852.84;109495;1274;22394;-62
2022/03/10 09:44:18;;;;;;;5.00;3.00;;;;;;;-4.26;42.06;100855.20;109564;1273;22479;-64
2022/03/10 09:46:49;;;;;;;18.10;7.90;;;;;;;-4.27;42.35;100851.75;109569;1272;22422;-62
2022/03/10 09:49:21;;;;;;;19.20;7.40;;;;;;;-4.24;42.62;100851.38;109578;1272;23134;-62
2022/03/10 09:51:49;;;;;;;6.40;3.10;;;;;;;-4.23;42.54;100856.55;109540;1274;22634;-62
2022/03/10 09:54:17;;;;;;;18.10;7.60;;;;;;;-4.23;41.28;100850.36;109589;1273;22591;-63
2022/03/10 09:56:45;;;;;;;19.30;7.00;;;;;;;-4.21;41.35;100848.09;109583;1273;22547;-63
2022/03/10 09:59:14;;;;;;;9.40;4.00;;;;;;;-4.16;41.33;100850.27;109489;1273;22435;-63
2022/03/10 10:01:42;;;;;;;6.10;3.60;;;;;;;-4.10;41.01;100844.74;109547;1273;22247;-63
2022/03/10 10:04:10;;;;;;;12.50;5.30;;;;;;;-4.07;40.80;100849.34;109569;1273;22428;-63
2022/03/10 10:06:59;;;;;;;11.10;3.90;;;;;;;-4.10;39.25;100844.77;109507;1273;22934;-63
2022/03/10 10:09:44;;;;;;;5.90;3.00;;;;;;;-4.15;40.24;100844.89;109544;1273;23448;-63
2022/03/10 10:12:14;;;;;;;11.40;6.40;;;;;;;-4.17;40.49;100844.16;109547;1273;22394;-63
2022/03/10 10:14:46;;;;;;;13.30;5.70;;;;;;;-4.20;41.16;100843.54;109395;1274;22416;-63
2022/03/10 10:17:32;;;;;;;4.90;1.90;;;;;;;-4.22;40.94;100840.39;109569;1273;22457;-63
2022/03/10 10:20:20;;;;;;;8.40;2.50;;;;;;;-4.20;41.02;100840.35;109553;1273;22426;-62
2022/03/10 10:22:48;;;;;;;4.10;2.30;;;;;;;-4.16;41.05;100851.17;109548;1273;22488;-63
2022/03/10 10:25:20;;;;;;;5.10;2.90;;;;;;;-4.15;41.16;100844.14;109549;1273;22232;-63
2022/03/10 10:27:49;;;;;;;13.50;6.60;;;;;;;-4.12;41.26;100843.72;109563;1272;23521;-63
2022/03/10 10:30:17;;;;;;;15.30;7.40;;;;;;;-4.09;40.78;100841.14;109550;1273;22523;-63
2022/03/10 10:32:50;;;;;;;6.00;3.20;;;;;;;-4.07;41.23;100835.30;109567;1273;22451;-63
2022/03/10 10:35:21;;;;;;;22.70;8.00;;;;;;;-4.03;41.21;100839.88;109556;1273;22517;-63
2022/03/10 10:56:29;;;;;;;4.70;2.60;;;;;;;-3.86;40.69;100844.88;109558;1272;23247;-63
2022/03/10 10:58:57;;;;;;;14.30;6.40;;;;;;;-3.79;40.35;100838.57;109603;1272;22587;-63
2022/03/10 11:01:33;;;;;;;11.00;3.70;;;;;;;-3.74;40.38;100841.86;109672;1272;22427;-64
2022/03/10 11:04:05;;;;;;;7.20;3.40;;;;;;;-3.71;39.82;100834.50;109526;1273;22504;-63
2022/03/10 11:06:34;;;;;;;5.30;3.10;;;;;;;-3.72;40.07;100830.23;109660;1271;22567;-64
2022/03/10 11:09:03;;;;;;;4.90;3.00;;;;;;;-3.69;39.58;100835.40;109659;1274;23078;-63
2022/03/10 11:11:31;;;;;;;8.00;4.10;;;;;;;-3.67;38.64;100836.95;109671;1272;22397;-63
2022/03/10 11:14:01;;;;;;;11.30;5.50;;;;;;;-3.63;39.19;100833.02;109619;1273;23240;-63
2022/03/10 11:16:30;;;;;;;7.40;3.00;;;;;;;-3.57;39.57;100833.06;109663;1273;22410;-63
2022/03/10 11:18:59;;;;;;;5.80;2.90;;;;;;;-3.57;39.81;100829.45;109669;1273;22401;-63
2022/03/10 11:22:05;;;;;;;9.00;2.90;;;;;;;-3.58;39.73;100830.05;109470;1274;22487;-63
2022/03/10 11:24:45;;;;;;;13.60;5.80;;;;;;;-3.56;40.65;100818.07;109511;1273;22442;-63
2022/03/10 11:27:18;;;;;;;13.30;4.90;;;;;;;-3.52;40.80;100814.02;109633;1273;22543;-63
2022/03/10 11:29:49;;;;;;;12.50;5.00;;;;;;;-3.48;41.02;100823.71;109622;1273;22464;-63
2022/03/10 11:32:17;;;;;;;14.70;6.30;;;;;;;-3.42;40.93;100817.70;109674;1272;22332;-64
2022/03/10 11:34:47;;;;;;;14.60;5.70;;;;;;;-3.38;40.72;100820.84;109581;1273;22434;-64
2022/03/10 11:37:34;;;;;;;5.70;3.50;;;;;;;-3.35;40.61;100815.45;109618;1272;22448;-63
2022/03/10 11:40:11;;;;;;;17.40;8.00;;;;;;;-3.33;40.68;100813.35;109644;1273;22404;-63
2022/03/10 11:42:39;;;;;;;13.70;5.50;;;;;;;-3.29;40.68;100818.30;109679;1272;22392;-63
2022/03/10 11:45:17;;;;;;;9.40;4.90;;;;;;;-3.28;40.30;100817.98;109717;1272;22459;-63
2022/03/10 11:47:47;;;;;;;8.80;4.60;;;;;;;-3.25;40.12;100821.80;109572;1272;22248;-63